sensor_id;sensor_type;location;lat;lon;timestamp;P1;durP1;ratioP1;P2;durP2;ratioP2
25913;SDS011;13718;50.922;5.346;2022-08-19T00:01:42;37.08;;;25.52;;
25913;SDS011;13718;50.922;5.346;2022-08-19T00:04:10;36.85;;;25.35;;
25913;SDS011;13718;50.922;5.346;2022-08-19T00:06:39;35.10;;;25.65;;
25913;SDS011;13718;50.922;5.346;2022-08-19T00:09:06;36.60;;;26.60;;
25913;SDS011;13718;50.922;5.346;2022-08-19T00:11:35;41.97;;;27.88;;
25913;SDS011;13718;50.922;5.346;2022-08-19T00:14:01;42.15;;;27.50;;
25913;SDS011;13718;50.922;5.346;2022-08-19T00:16:28;46.55;;;30.00;;
25913;SDS011;13718;50.922;5.346;2022-08-19T00:18:54;44.10;;;28.65;;
25913;SDS011;13718;50.922;5.346;2022-08-19T00:21:20;43.42;;;29.08;;
25913;SDS011;13718;50.922;5.346;2022-08-19T00:23:46;44.05;;;29.35;;
25913;SDS011;13718;50.922;5.346;2022-08-19T00:26:12;42.60;;;28.17;;
25913;SDS011;13718;50.922;5.346;2022-08-19T00:28:38;43.50;;;28.85;;
25913;SDS011;13718;50.922;5.346;2022-08-19T00:31:04;42.00;;;28.48;;
25913;SDS011;13718;50.922;5.346;2022-08-19T00:33:31;42.42;;;28.15;;
25913;SDS011;13718;50.922;5.346;2022-08-19T00:35:57;44.10;;;28.30;;
25913;SDS011;13718;50.922;5.346;2022-08-19T00:40:55;40.17;;;27.23;;
25913;SDS011;13718;50.922;5.346;2022-08-19T00:43:22;44.33;;;28.48;;
25913;SDS011;13718;50.922;5.346;2022-08-19T00:45:50;44.17;;;29.30;;
25913;SDS011;13718;50.922;5.346;2022-08-19T00:48:16;44.50;;;29.10;;
25913;SDS011;13718;50.922;5.346;2022-08-19T00:50:43;42.95;;;29.33;;
25913;SDS011;13718;50.922;5.346;2022-08-19T00:53:13;45.10;;;29.23;;
25913;SDS011;13718;50.922;5.346;2022-08-19T00:55:42;47.63;;;29.25;;
25913;SDS011;13718;50.922;5.346;2022-08-19T00:58:12;46.20;;;29.83;;
25913;SDS011;13718;50.922;5.346;2022-08-19T01:00:40;44.03;;;29.17;;
25913;SDS011;13718;50.922;5.346;2022-08-19T01:03:15;44.45;;;29.55;;
25913;SDS011;13718;50.922;5.346;2022-08-19T01:05:43;47.25;;;29.85;;
25913;SDS011;13718;50.922;5.346;2022-08-19T01:08:10;40.65;;;28.10;;
25913;SDS011;13718;50.922;5.346;2022-08-19T01:10:55;47.05;;;29.25;;
25913;SDS011;13718;50.922;5.346;2022-08-19T01:13:24;44.22;;;28.00;;
25913;SDS011;13718;50.922;5.346;2022-08-19T01:15:54;44.92;;;28.75;;
25913;SDS011;13718;50.922;5.346;2022-08-19T01:18:22;44.40;;;28.80;;
25913;SDS011;13718;50.922;5.346;2022-08-19T01:20:49;49.03;;;29.98;;
25913;SDS011;13718;50.922;5.346;2022-08-19T01:23:16;44.88;;;28.23;;
25913;SDS011;13718;50.922;5.346;2022-08-19T01:25:47;45.25;;;28.50;;
25913;SDS011;13718;50.922;5.346;2022-08-19T01:28:17;50.60;;;30.50;;
25913;SDS011;13718;50.922;5.346;2022-08-19T01:30:51;48.08;;;30.55;;
25913;SDS011;13718;50.922;5.346;2022-08-19T01:33:18;46.70;;;29.85;;
25913;SDS011;13718;50.922;5.346;2022-08-19T01:35:44;50.88;;;30.90;;
25913;SDS011;13718;50.922;5.346;2022-08-19T01:38:18;50.03;;;30.95;;
25913;SDS011;13718;50.922;5.346;2022-08-19T01:40:46;46.20;;;29.70;;
25913;SDS011;13718;50.922;5.346;2022-08-19T01:43:12;49.90;;;30.33;;
25913;SDS011;13718;50.922;5.346;2022-08-19T01:45:37;47.80;;;30.77;;
25913;SDS011;13718;50.922;5.346;2022-08-19T01:48:05;47.33;;;29.63;;
25913;SDS011;13718;50.922;5.346;2022-08-19T01:50:32;55.40;;;31.10;;
25913;SDS011;13718;50.922;5.346;2022-08-19T01:52:59;54.92;;;32.20;;
25913;SDS011;13718;50.922;5.346;2022-08-19T01:55:26;52.42;;;31.30;;
25913;SDS011;13718;50.922;5.346;2022-08-19T01:57:53;54.90;;;30.75;;
25913;SDS011;13718;50.922;5.346;2022-08-19T02:00:23;52.38;;;32.17;;
25913;SDS011;13718;50.922;5.346;2022-08-19T02:02:51;54.13;;;30.73;;
25913;SDS011;13718;50.922;5.346;2022-08-19T02:05:17;53.47;;;30.92;;
25913;SDS011;13718;50.922;5.346;2022-08-19T02:07:43;51.10;;;29.52;;
25913;SDS011;13718;50.922;5.346;2022-08-19T02:10:11;52.78;;;30.65;;
25913;SDS011;13718;50.922;5.346;2022-08-19T02:12:39;52.33;;;31.13;;
25913;SDS011;13718;50.922;5.346;2022-08-19T02:15:05;60.20;;;32.70;;
25913;SDS011;13718;50.922;5.346;2022-08-19T02:17:32;59.72;;;31.88;;
25913;SDS011;13718;50.922;5.346;2022-08-19T02:19:58;62.28;;;33.95;;
25913;SDS011;13718;50.922;5.346;2022-08-19T02:22:24;56.22;;;33.38;;
25913;SDS011;13718;50.922;5.346;2022-08-19T02:24:54;59.80;;;32.45;;
25913;SDS011;13718;50.922;5.346;2022-08-19T02:27:20;58.35;;;33.13;;
25913;SDS011;13718;50.922;5.346;2022-08-19T02:29:46;64.13;;;32.80;;
25913;SDS011;13718;50.922;5.346;2022-08-19T02:32:13;54.88;;;32.95;;
25913;SDS011;13718;50.922;5.346;2022-08-19T02:34:39;57.38;;;32.17;;
25913;SDS011;13718;50.922;5.346;2022-08-19T02:37:05;57.13;;;31.95;;
25913;SDS011;13718;50.922;5.346;2022-08-19T02:39:51;57.33;;;31.88;;
25913;SDS011;13718;50.922;5.346;2022-08-19T02:42:16;64.43;;;32.90;;
25913;SDS011;13718;50.922;5.346;2022-08-19T02:44:42;59.28;;;32.78;;
25913;SDS011;13718;50.922;5.346;2022-08-19T02:47:08;65.93;;;33.70;;
25913;SDS011;13718;50.922;5.346;2022-08-19T02:49:35;63.92;;;35.65;;
25913;SDS011;13718;50.922;5.346;2022-08-19T02:52:01;63.72;;;33.50;;
25913;SDS011;13718;50.922;5.346;2022-08-19T02:54:27;63.63;;;33.70;;
25913;SDS011;13718;50.922;5.346;2022-08-19T02:56:53;69.28;;;35.55;;
25913;SDS011;13718;50.922;5.346;2022-08-19T02:59:19;71.85;;;37.67;;
25913;SDS011;13718;50.922;5.346;2022-08-19T03:01:45;70.05;;;36.08;;
25913;SDS011;13718;50.922;5.346;2022-08-19T03:04:11;75.65;;;37.25;;
25913;SDS011;13718;50.922;5.346;2022-08-19T03:06:40;73.25;;;36.90;;
25913;SDS011;13718;50.922;5.346;2022-08-19T03:09:07;72.85;;;37.42;;
25913;SDS011;13718;50.922;5.346;2022-08-19T03:11:33;71.57;;;37.50;;
25913;SDS011;13718;50.922;5.346;2022-08-19T03:13:59;74.18;;;37.47;;
25913;SDS011;13718;50.922;5.346;2022-08-19T03:16:27;80.85;;;39.03;;
25913;SDS011;13718;50.922;5.346;2022-08-19T03:18:55;81.50;;;37.92;;
25913;SDS011;13718;50.922;5.346;2022-08-19T03:21:25;82.63;;;39.25;;
25913;SDS011;13718;50.922;5.346;2022-08-19T03:23:54;82.28;;;38.85;;
25913;SDS011;13718;50.922;5.346;2022-08-19T03:26:21;80.45;;;39.47;;
25913;SDS011;13718;50.922;5.346;2022-08-19T03:28:46;77.75;;;37.05;;
25913;SDS011;13718;50.922;5.346;2022-08-19T03:31:15;82.47;;;38.15;;
25913;SDS011;13718;50.922;5.346;2022-08-19T03:33:43;81.38;;;37.92;;
25913;SDS011;13718;50.922;5.346;2022-08-19T03:38:35;79.15;;;38.72;;
25913;SDS011;13718;50.922;5.346;2022-08-19T03:41:03;84.35;;;39.78;;
25913;SDS011;13718;50.922;5.346;2022-08-19T03:43:31;86.00;;;40.40;;
25913;SDS011;13718;50.922;5.346;2022-08-19T03:46:02;88.90;;;39.80;;
25913;SDS011;13718;50.922;5.346;2022-08-19T03:48:29;92.03;;;41.53;;
25913;SDS011;13718;50.922;5.346;2022-08-19T03:50:56;91.03;;;41.65;;
25913;SDS011;13718;50.922;5.346;2022-08-19T03:53:23;88.88;;;40.67;;
25913;SDS011;13718;50.922;5.346;2022-08-19T03:55:48;93.15;;;40.47;;
25913;SDS011;13718;50.922;5.346;2022-08-19T03:58:14;92.20;;;40.22;;
25913;SDS011;13718;50.922;5.346;2022-08-19T04:00:42;90.53;;;39.65;;
25913;SDS011;13718;50.922;5.346;2022-08-19T04:03:07;97.43;;;41.55;;
25913;SDS011;13718;50.922;5.346;2022-08-19T04:05:33;93.97;;;41.70;;
25913;SDS011;13718;50.922;5.346;2022-08-19T04:07:59;91.05;;;40.60;;
25913;SDS011;13718;50.922;5.346;2022-08-19T04:10:25;95.90;;;42.65;;
25913;SDS011;13718;50.922;5.346;2022-08-19T04:12:53;94.03;;;41.42;;
25913;SDS011;13718;50.922;5.346;2022-08-19T04:15:18;99.45;;;41.80;;
25913;SDS011;13718;50.922;5.346;2022-08-19T04:17:45;103.97;;;43.22;;
25913;SDS011;13718;50.922;5.346;2022-08-19T04:20:11;100.80;;;42.70;;
25913;SDS011;13718;50.922;5.346;2022-08-19T04:22:36;99.20;;;42.92;;
25913;SDS011;13718;50.922;5.346;2022-08-19T04:25:02;103.85;;;41.78;;
25913;SDS011;13718;50.922;5.346;2022-08-19T04:27:28;107.63;;;43.28;;
25913;SDS011;13718;50.922;5.346;2022-08-19T04:29:54;107.03;;;42.95;;
25913;SDS011;13718;50.922;5.346;2022-08-19T04:32:20;110.95;;;45.65;;
25913;SDS011;13718;50.922;5.346;2022-08-19T04:34:46;105.97;;;42.55;;
25913;SDS011;13718;50.922;5.346;2022-08-19T04:37:11;106.50;;;43.25;;
25913;SDS011;13718;50.922;5.346;2022-08-19T04:39:39;102.10;;;41.25;;
25913;SDS011;13718;50.922;5.346;2022-08-19T04:42:23;103.13;;;42.10;;
25913;SDS011;13718;50.922;5.346;2022-08-19T04:45:10;103.47;;;43.72;;
25913;SDS011;13718;50.922;5.346;2022-08-19T04:47:41;109.45;;;43.50;;
25913;SDS011;13718;50.922;5.346;2022-08-19T04:50:09;101.35;;;42.60;;
25913;SDS011;13718;50.922;5.346;2022-08-19T04:52:37;103.20;;;42.13;;
25913;SDS011;13718;50.922;5.346;2022-08-19T04:55:07;97.88;;;40.85;;
25913;SDS011;13718;50.922;5.346;2022-08-19T04:57:33;99.93;;;41.50;;
25913;SDS011;13718;50.922;5.346;2022-08-19T05:00:00;100.55;;;40.95;;
25913;SDS011;13718;50.922;5.346;2022-08-19T05:02:26;100.53;;;41.03;;
25913;SDS011;13718;50.922;5.346;2022-08-19T05:04:56;102.00;;;41.33;;
25913;SDS011;13718;50.922;5.346;2022-08-19T05:07:24;105.45;;;42.40;;
25913;SDS011;13718;50.922;5.346;2022-08-19T05:09:50;96.82;;;39.22;;
25913;SDS011;13718;50.922;5.346;2022-08-19T05:12:15;100.68;;;41.10;;
25913;SDS011;13718;50.922;5.346;2022-08-19T05:14:41;108.93;;;44.35;;
25913;SDS011;13718;50.922;5.346;2022-08-19T05:17:08;107.72;;;43.85;;
25913;SDS011;13718;50.922;5.346;2022-08-19T05:19:33;110.43;;;43.78;;
25913;SDS011;13718;50.922;5.346;2022-08-19T05:22:17;109.45;;;44.13;;
25913;SDS011;13718;50.922;5.346;2022-08-19T05:24:59;100.22;;;42.67;;
25913;SDS011;13718;50.922;5.346;2022-08-19T05:27:34;102.60;;;42.72;;
25913;SDS011;13718;50.922;5.346;2022-08-19T05:30:00;109.40;;;43.75;;
25913;SDS011;13718;50.922;5.346;2022-08-19T05:32:27;103.63;;;42.95;;
25913;SDS011;13718;50.922;5.346;2022-08-19T05:34:53;111.13;;;43.90;;
25913;SDS011;13718;50.922;5.346;2022-08-19T05:37:19;111.35;;;43.58;;
25913;SDS011;13718;50.922;5.346;2022-08-19T05:39:44;104.47;;;45.17;;
25913;SDS011;13718;50.922;5.346;2022-08-19T05:42:11;105.43;;;44.72;;
25913;SDS011;13718;50.922;5.346;2022-08-19T05:44:38;98.10;;;43.00;;
25913;SDS011;13718;50.922;5.346;2022-08-19T05:47:09;107.07;;;44.22;;
25913;SDS011;13718;50.922;5.346;2022-08-19T05:49:36;92.05;;;42.13;;
25913;SDS011;13718;50.922;5.346;2022-08-19T05:52:03;87.60;;;40.42;;
25913;SDS011;13718;50.922;5.346;2022-08-19T05:54:31;85.22;;;40.45;;
25913;SDS011;13718;50.922;5.346;2022-08-19T05:56:57;83.03;;;37.60;;
25913;SDS011;13718;50.922;5.346;2022-08-19T05:59:23;68.85;;;34.33;;
25913;SDS011;13718;50.922;5.346;2022-08-19T06:01:50;70.35;;;34.97;;
25913;SDS011;13718;50.922;5.346;2022-08-19T06:04:17;64.03;;;33.95;;
25913;SDS011;13718;50.922;5.346;2022-08-19T06:06:44;65.65;;;32.53;;
25913;SDS011;13718;50.922;5.346;2022-08-19T06:09:13;65.85;;;33.05;;
25913;SDS011;13718;50.922;5.346;2022-08-19T06:11:44;57.72;;;29.88;;
25913;SDS011;13718;50.922;5.346;2022-08-19T06:14:18;62.67;;;31.00;;
25913;SDS011;13718;50.922;5.346;2022-08-19T06:16:46;61.67;;;30.60;;
25913;SDS011;13718;50.922;5.346;2022-08-19T06:19:16;57.10;;;29.88;;
25913;SDS011;13718;50.922;5.346;2022-08-19T06:21:43;56.55;;;30.17;;
25913;SDS011;13718;50.922;5.346;2022-08-19T06:24:12;55.40;;;28.23;;
25913;SDS011;13718;50.922;5.346;2022-08-19T06:26:42;51.92;;;27.85;;
25913;SDS011;13718;50.922;5.346;2022-08-19T06:29:09;51.65;;;26.27;;
25913;SDS011;13718;50.922;5.346;2022-08-19T06:31:36;51.05;;;27.10;;
25913;SDS011;13718;50.922;5.346;2022-08-19T06:34:06;46.78;;;26.23;;
25913;SDS011;13718;50.922;5.346;2022-08-19T06:36:35;47.40;;;25.77;;
25913;SDS011;13718;50.922;5.346;2022-08-19T06:39:07;49.30;;;24.67;;
25913;SDS011;13718;50.922;5.346;2022-08-19T06:41:37;46.63;;;24.52;;
25913;SDS011;13718;50.922;5.346;2022-08-19T06:44:05;42.85;;;24.00;;
25913;SDS011;13718;50.922;5.346;2022-08-19T06:46:31;39.70;;;22.88;;
25913;SDS011;13718;50.922;5.346;2022-08-19T06:48:57;42.75;;;22.88;;
25913;SDS011;13718;50.922;5.346;2022-08-19T06:51:23;41.05;;;22.10;;
25913;SDS011;13718;50.922;5.346;2022-08-19T06:53:50;39.70;;;22.45;;
25913;SDS011;13718;50.922;5.346;2022-08-19T06:56:19;43.22;;;22.80;;
25913;SDS011;13718;50.922;5.346;2022-08-19T06:58:47;44.45;;;21.25;;
25913;SDS011;13718;50.922;5.346;2022-08-19T07:01:16;39.95;;;20.92;;
25913;SDS011;13718;50.922;5.346;2022-08-19T07:03:42;39.20;;;20.35;;
25913;SDS011;13718;50.922;5.346;2022-08-19T07:06:11;38.63;;;20.67;;
25913;SDS011;13718;50.922;5.346;2022-08-19T07:08:42;38.63;;;18.92;;
25913;SDS011;13718;50.922;5.346;2022-08-19T07:11:09;36.20;;;18.52;;
25913;SDS011;13718;50.922;5.346;2022-08-19T07:13:38;42.05;;;18.98;;
25913;SDS011;13718;50.922;5.346;2022-08-19T07:16:08;42.05;;;18.70;;
25913;SDS011;13718;50.922;5.346;2022-08-19T07:18:35;34.65;;;18.33;;
25913;SDS011;13718;50.922;5.346;2022-08-19T07:21:06;33.40;;;18.13;;
25913;SDS011;13718;50.922;5.346;2022-08-19T07:23:34;30.30;;;16.52;;
25913;SDS011;13718;50.922;5.346;2022-08-19T07:26:14;34.33;;;17.08;;
25913;SDS011;13718;50.922;5.346;2022-08-19T07:28:44;34.78;;;18.33;;
25913;SDS011;13718;50.922;5.346;2022-08-19T07:31:17;33.90;;;17.92;;
25913;SDS011;13718;50.922;5.346;2022-08-19T07:33:46;36.40;;;17.20;;
25913;SDS011;13718;50.922;5.346;2022-08-19T07:36:13;33.40;;;16.05;;
25913;SDS011;13718;50.922;5.346;2022-08-19T07:38:43;34.67;;;17.50;;
25913;SDS011;13718;50.922;5.346;2022-08-19T07:41:11;32.38;;;17.25;;
25913;SDS011;13718;50.922;5.346;2022-08-19T07:43:38;36.25;;;17.52;;
25913;SDS011;13718;50.922;5.346;2022-08-19T07:46:04;32.40;;;16.42;;
25913;SDS011;13718;50.922;5.346;2022-08-19T07:48:31;31.23;;;16.67;;
25913;SDS011;13718;50.922;5.346;2022-08-19T07:50:58;32.83;;;16.48;;
25913;SDS011;13718;50.922;5.346;2022-08-19T07:53:27;31.38;;;16.38;;
25913;SDS011;13718;50.922;5.346;2022-08-19T07:55:54;29.90;;;16.10;;
25913;SDS011;13718;50.922;5.346;2022-08-19T07:58:20;28.48;;;16.17;;
25913;SDS011;13718;50.922;5.346;2022-08-19T08:00:48;26.75;;;15.15;;
25913;SDS011;13718;50.922;5.346;2022-08-19T08:03:17;27.30;;;14.10;;
25913;SDS011;13718;50.922;5.346;2022-08-19T08:05:44;25.00;;;13.75;;
25913;SDS011;13718;50.922;5.346;2022-08-19T08:08:29;27.77;;;12.90;;
25913;SDS011;13718;50.922;5.346;2022-08-19T08:11:14;22.70;;;13.85;;
25913;SDS011;13718;50.922;5.346;2022-08-19T08:13:42;26.73;;;13.77;;
25913;SDS011;13718;50.922;5.346;2022-08-19T08:16:08;25.42;;;13.20;;
25913;SDS011;13718;50.922;5.346;2022-08-19T08:18:33;27.60;;;13.23;;
25913;SDS011;13718;50.922;5.346;2022-08-19T08:21:06;25.63;;;13.75;;
25913;SDS011;13718;50.922;5.346;2022-08-19T08:23:31;26.55;;;13.80;;
25913;SDS011;13718;50.922;5.346;2022-08-19T08:25:57;26.00;;;12.65;;
25913;SDS011;13718;50.922;5.346;2022-08-19T08:28:24;26.15;;;12.93;;
25913;SDS011;13718;50.922;5.346;2022-08-19T08:30:50;21.83;;;11.93;;
25913;SDS011;13718;50.922;5.346;2022-08-19T08:33:17;23.77;;;13.05;;
25913;SDS011;13718;50.922;5.346;2022-08-19T08:35:44;20.83;;;12.18;;
25913;SDS011;13718;50.922;5.346;2022-08-19T08:38:10;24.67;;;12.50;;
25913;SDS011;13718;50.922;5.346;2022-08-19T08:45:52;22.20;;;11.57;;
25913;SDS011;13718;50.922;5.346;2022-08-19T08:48:24;20.42;;;11.48;;
25913;SDS011;13718;50.922;5.346;2022-08-19T08:50:51;21.38;;;10.88;;
25913;SDS011;13718;50.922;5.346;2022-08-19T08:53:21;21.23;;;12.27;;
25913;SDS011;13718;50.922;5.346;2022-08-19T08:55:48;19.63;;;10.68;;
25913;SDS011;13718;50.922;5.346;2022-08-19T08:58:19;19.30;;;11.75;;
25913;SDS011;13718;50.922;5.346;2022-08-19T09:00:56;19.52;;;11.13;;
25913;SDS011;13718;50.922;5.346;2022-08-19T09:03:23;18.38;;;10.00;;
25913;SDS011;13718;50.922;5.346;2022-08-19T09:06:04;17.42;;;9.95;;
25913;SDS011;13718;50.922;5.346;2022-08-19T09:08:39;14.95;;;9.30;;
25913;SDS011;13718;50.922;5.346;2022-08-19T09:11:09;17.85;;;9.88;;
25913;SDS011;13718;50.922;5.346;2022-08-19T09:14:01;17.98;;;8.93;;
25913;SDS011;13718;50.922;5.346;2022-08-19T09:16:57;22.00;;;8.80;;
25913;SDS011;13718;50.922;5.346;2022-08-19T09:19:24;11.35;;;8.05;;
25913;SDS011;13718;50.922;5.346;2022-08-19T09:21:50;15.65;;;9.65;;
25913;SDS011;13718;50.922;5.346;2022-08-19T09:24:15;14.43;;;8.70;;
25913;SDS011;13718;50.922;5.346;2022-08-19T09:26:41;17.52;;;9.45;;
25913;SDS011;13718;50.922;5.346;2022-08-19T09:29:09;16.23;;;10.00;;
25913;SDS011;13718;50.922;5.346;2022-08-19T09:31:35;22.33;;;10.13;;
25913;SDS011;13718;50.922;5.346;2022-08-19T09:34:01;17.92;;;9.32;;
25913;SDS011;13718;50.922;5.346;2022-08-19T09:36:29;14.52;;;8.38;;
25913;SDS011;13718;50.922;5.346;2022-08-19T09:39:00;18.80;;;9.07;;
25913;SDS011;13718;50.922;5.346;2022-08-19T09:41:31;17.98;;;9.20;;
25913;SDS011;13718;50.922;5.346;2022-08-19T09:43:57;14.05;;;8.32;;
25913;SDS011;13718;50.922;5.346;2022-08-19T09:46:25;14.48;;;7.00;;
25913;SDS011;13718;50.922;5.346;2022-08-19T09:48:52;13.27;;;7.25;;
25913;SDS011;13718;50.922;5.346;2022-08-19T09:51:22;12.85;;;6.90;;
25913;SDS011;13718;50.922;5.346;2022-08-19T09:53:51;17.75;;;7.13;;
25913;SDS011;13718;50.922;5.346;2022-08-19T09:56:19;10.68;;;5.65;;
25913;SDS011;13718;50.922;5.346;2022-08-19T09:58:46;12.60;;;4.88;;
25913;SDS011;13718;50.922;5.346;2022-08-19T10:01:15;9.70;;;5.13;;
25913;SDS011;13718;50.922;5.346;2022-08-19T10:03:49;9.88;;;4.70;;
25913;SDS011;13718;50.922;5.346;2022-08-19T10:06:18;8.63;;;4.35;;
25913;SDS011;13718;50.922;5.346;2022-08-19T10:08:45;9.52;;;3.60;;
25913;SDS011;13718;50.922;5.346;2022-08-19T10:11:11;9.82;;;4.28;;
25913;SDS011;13718;50.922;5.346;2022-08-19T10:13:39;7.15;;;3.65;;
25913;SDS011;13718;50.922;5.346;2022-08-19T10:16:06;8.93;;;4.00;;
25913;SDS011;13718;50.922;5.346;2022-08-19T10:18:34;7.43;;;4.72;;
25913;SDS011;13718;50.922;5.346;2022-08-19T10:21:07;7.63;;;4.20;;
25913;SDS011;13718;50.922;5.346;2022-08-19T10:23:39;9.82;;;4.22;;
25913;SDS011;13718;50.922;5.346;2022-08-19T10:26:06;12.73;;;4.85;;
25913;SDS011;13718;50.922;5.346;2022-08-19T10:28:35;8.40;;;4.07;;
25913;SDS011;13718;50.922;5.346;2022-08-19T10:31:29;7.60;;;3.90;;
25913;SDS011;13718;50.922;5.346;2022-08-19T10:33:52;9.82;;;4.70;;
25913;SDS011;13718;50.922;5.346;2022-08-19T10:36:23;9.48;;;4.70;;
25913;SDS011;13718;50.922;5.346;2022-08-19T10:38:53;8.70;;;3.90;;
25913;SDS011;13718;50.922;5.346;2022-08-19T10:41:23;8.43;;;3.95;;
25913;SDS011;13718;50.922;5.346;2022-08-19T10:43:51;7.30;;;4.10;;
25913;SDS011;13718;50.922;5.346;2022-08-19T10:46:23;10.30;;;4.13;;
25913;SDS011;13718;50.922;5.346;2022-08-19T10:48:50;7.75;;;3.95;;
25913;SDS011;13718;50.922;5.346;2022-08-19T10:51:16;7.75;;;3.53;;
25913;SDS011;13718;50.922;5.346;2022-08-19T10:54:01;6.78;;;4.45;;
25913;SDS011;13718;50.922;5.346;2022-08-19T10:56:27;7.13;;;3.88;;
25913;SDS011;13718;50.922;5.346;2022-08-19T10:59:12;9.18;;;3.17;;
25913;SDS011;13718;50.922;5.346;2022-08-19T11:01:39;9.70;;;3.05;;
25913;SDS011;13718;50.922;5.346;2022-08-19T11:04:06;6.05;;;3.30;;
25913;SDS011;13718;50.922;5.346;2022-08-19T11:06:35;5.65;;;3.33;;
25913;SDS011;13718;50.922;5.346;2022-08-19T11:09:02;6.30;;;3.15;;
25913;SDS011;13718;50.922;5.346;2022-08-19T11:11:28;6.75;;;3.60;;
25913;SDS011;13718;50.922;5.346;2022-08-19T11:13:53;9.05;;;3.88;;
25913;SDS011;13718;50.922;5.346;2022-08-19T11:16:21;7.97;;;3.30;;
25913;SDS011;13718;50.922;5.346;2022-08-19T11:18:49;7.90;;;3.47;;
25913;SDS011;13718;50.922;5.346;2022-08-19T11:21:22;9.50;;;3.47;;
25913;SDS011;13718;50.922;5.346;2022-08-19T11:23:51;7.95;;;3.83;;
25913;SDS011;13718;50.922;5.346;2022-08-19T11:26:18;7.55;;;3.63;;
25913;SDS011;13718;50.922;5.346;2022-08-19T11:28:45;7.80;;;4.13;;
25913;SDS011;13718;50.922;5.346;2022-08-19T11:31:12;6.78;;;3.20;;
25913;SDS011;13718;50.922;5.346;2022-08-19T11:33:40;7.20;;;3.40;;
25913;SDS011;13718;50.922;5.346;2022-08-19T11:36:07;8.13;;;3.28;;
25913;SDS011;13718;50.922;5.346;2022-08-19T11:38:33;5.88;;;3.15;;
25913;SDS011;13718;50.922;5.346;2022-08-19T11:41:01;6.10;;;3.42;;
25913;SDS011;13718;50.922;5.346;2022-08-19T11:43:29;10.43;;;4.57;;
25913;SDS011;13718;50.922;5.346;2022-08-19T11:45:55;6.88;;;4.45;;
25913;SDS011;13718;50.922;5.346;2022-08-19T11:48:21;8.38;;;4.25;;
25913;SDS011;13718;50.922;5.346;2022-08-19T11:50:49;6.68;;;3.40;;
25913;SDS011;13718;50.922;5.346;2022-08-19T11:53:16;7.22;;;3.78;;
25913;SDS011;13718;50.922;5.346;2022-08-19T11:55:44;4.85;;;3.30;;
25913;SDS011;13718;50.922;5.346;2022-08-19T11:58:10;5.45;;;2.97;;
25913;SDS011;13718;50.922;5.346;2022-08-19T12:00:37;7.05;;;3.30;;
25913;SDS011;13718;50.922;5.346;2022-08-19T12:03:03;6.70;;;3.13;;
25913;SDS011;13718;50.922;5.346;2022-08-19T12:05:29;6.88;;;3.20;;
25913;SDS011;13718;50.922;5.346;2022-08-19T12:07:55;6.00;;;3.15;;
25913;SDS011;13718;50.922;5.346;2022-08-19T12:10:21;5.88;;;3.13;;
25913;SDS011;13718;50.922;5.346;2022-08-19T12:12:46;5.63;;;3.35;;
25913;SDS011;13718;50.922;5.346;2022-08-19T12:15:12;7.00;;;3.08;;
25913;SDS011;13718;50.922;5.346;2022-08-19T12:17:39;6.32;;;3.65;;
25913;SDS011;13718;50.922;5.346;2022-08-19T12:20:07;6.85;;;3.80;;
25913;SDS011;13718;50.922;5.346;2022-08-19T12:22:38;5.50;;;3.22;;
25913;SDS011;13718;50.922;5.346;2022-08-19T12:25:06;6.25;;;3.88;;
25913;SDS011;13718;50.922;5.346;2022-08-19T12:27:32;5.65;;;3.15;;
25913;SDS011;13718;50.922;5.346;2022-08-19T12:30:00;9.50;;;3.58;;
25913;SDS011;13718;50.922;5.346;2022-08-19T12:32:26;13.02;;;3.80;;
25913;SDS011;13718;50.922;5.346;2022-08-19T12:34:52;7.22;;;3.65;;
25913;SDS011;13718;50.922;5.346;2022-08-19T12:37:18;6.07;;;3.53;;
25913;SDS011;13718;50.922;5.346;2022-08-19T12:39:44;7.90;;;3.83;;
25913;SDS011;13718;50.922;5.346;2022-08-19T12:42:11;8.75;;;4.03;;
25913;SDS011;13718;50.922;5.346;2022-08-19T12:44:38;7.18;;;3.75;;
25913;SDS011;13718;50.922;5.346;2022-08-19T12:47:05;8.20;;;3.20;;
25913;SDS011;13718;50.922;5.346;2022-08-19T12:49:32;7.35;;;3.40;;
25913;SDS011;13718;50.922;5.346;2022-08-19T12:52:02;6.05;;;2.60;;
25913;SDS011;13718;50.922;5.346;2022-08-19T12:54:29;8.02;;;3.45;;
25913;SDS011;13718;50.922;5.346;2022-08-19T12:56:55;6.28;;;2.88;;
25913;SDS011;13718;50.922;5.346;2022-08-19T12:59:21;5.72;;;2.80;;
25913;SDS011;13718;50.922;5.346;2022-08-19T13:01:47;7.88;;;3.17;;
25913;SDS011;13718;50.922;5.346;2022-08-19T13:04:13;7.50;;;3.67;;
25913;SDS011;13718;50.922;5.346;2022-08-19T13:06:38;8.27;;;3.47;;
25913;SDS011;13718;50.922;5.346;2022-08-19T13:09:04;8.25;;;3.50;;
25913;SDS011;13718;50.922;5.346;2022-08-19T13:11:30;7.07;;;3.78;;
25913;SDS011;13718;50.922;5.346;2022-08-19T13:13:58;6.38;;;3.30;;
25913;SDS011;13718;50.922;5.346;2022-08-19T13:16:25;8.52;;;3.28;;
25913;SDS011;13718;50.922;5.346;2022-08-19T13:18:52;5.53;;;2.95;;
25913;SDS011;13718;50.922;5.346;2022-08-19T13:21:19;6.78;;;2.97;;
25913;SDS011;13718;50.922;5.346;2022-08-19T13:23:47;5.45;;;2.55;;
25913;SDS011;13718;50.922;5.346;2022-08-19T13:26:13;5.30;;;2.88;;
25913;SDS011;13718;50.922;5.346;2022-08-19T13:28:39;6.57;;;2.30;;
25913;SDS011;13718;50.922;5.346;2022-08-19T13:31:25;4.50;;;2.50;;
25913;SDS011;13718;50.922;5.346;2022-08-19T13:34:11;7.07;;;2.42;;
25913;SDS011;13718;50.922;5.346;2022-08-19T13:36:38;5.20;;;2.13;;
25913;SDS011;13718;50.922;5.346;2022-08-19T13:39:04;5.45;;;2.00;;
25913;SDS011;13718;50.922;5.346;2022-08-19T13:41:32;4.40;;;1.73;;
25913;SDS011;13718;50.922;5.346;2022-08-19T13:43:59;3.67;;;1.95;;
25913;SDS011;13718;50.922;5.346;2022-08-19T13:46:25;4.03;;;2.00;;
25913;SDS011;13718;50.922;5.346;2022-08-19T13:48:52;3.25;;;2.08;;
25913;SDS011;13718;50.922;5.346;2022-08-19T13:51:18;4.38;;;2.10;;
25913;SDS011;13718;50.922;5.346;2022-08-19T13:53:44;5.32;;;2.33;;
25913;SDS011;13718;50.922;5.346;2022-08-19T13:56:13;3.35;;;1.92;;
25913;SDS011;13718;50.922;5.346;2022-08-19T13:58:41;4.07;;;2.20;;
25913;SDS011;13718;50.922;5.346;2022-08-19T14:01:07;3.58;;;1.83;;
25913;SDS011;13718;50.922;5.346;2022-08-19T14:03:33;4.78;;;1.73;;
25913;SDS011;13718;50.922;5.346;2022-08-19T14:05:59;2.65;;;1.90;;
25913;SDS011;13718;50.922;5.346;2022-08-19T14:08:25;3.70;;;2.00;;
25913;SDS011;13718;50.922;5.346;2022-08-19T14:10:53;3.90;;;1.73;;
25913;SDS011;13718;50.922;5.346;2022-08-19T14:13:20;5.47;;;2.35;;
25913;SDS011;13718;50.922;5.346;2022-08-19T14:15:47;3.78;;;2.30;;
25913;SDS011;13718;50.922;5.346;2022-08-19T14:18:16;3.45;;;2.20;;
25913;SDS011;13718;50.922;5.346;2022-08-19T14:20:43;9.52;;;2.42;;
25913;SDS011;13718;50.922;5.346;2022-08-19T14:23:09;4.30;;;2.20;;
25913;SDS011;13718;50.922;5.346;2022-08-19T14:25:37;7.32;;;2.60;;
25913;SDS011;13718;50.922;5.346;2022-08-19T14:28:02;4.55;;;2.20;;
25913;SDS011;13718;50.922;5.346;2022-08-19T14:30:29;6.50;;;2.30;;
25913;SDS011;13718;50.922;5.346;2022-08-19T14:32:57;4.05;;;2.33;;
25913;SDS011;13718;50.922;5.346;2022-08-19T14:35:24;4.63;;;2.40;;
25913;SDS011;13718;50.922;5.346;2022-08-19T14:37:51;5.55;;;2.60;;
25913;SDS011;13718;50.922;5.346;2022-08-19T14:40:23;3.90;;;2.45;;
25913;SDS011;13718;50.922;5.346;2022-08-19T14:42:52;4.45;;;2.10;;
25913;SDS011;13718;50.922;5.346;2022-08-19T14:45:20;4.00;;;2.15;;